Latest Weather Observations for Cape Jaffa

IDS60801

Issued at 4:02 am CST Thursday 29 September 2016 (issued every 30 minutes, with the page automatically refreshed every 10 minutes)

About weather observations | Map of weather stations | Latest weather observations for SA | Other Formats
Station Details ID: 026095 Name: THE LIMESTONE Lat: -36.97 Lon: 139.72 Height: 17.0 m
Data from the previous 72 hours. | See also: Recent months at Cape Jaffa
Date/Time
CST
Temp
°C
App
Temp
°C
Dew
Point
°C
Rel
Hum
%
Delta-T
°C
Wind Press
QNH
hPa
Press
MSL
hPa
Rain since
9am
mm
Dir  Spd
km/h
Gust
km/h
Spd
kts
Gust
kts
29/04:00am 10.6 2.0 6.6 76 1.9 N 41 52 22 28 982.8 982.8 24.6
29/03:30am 10.7 1.6 6.1 73 2.2 NNW 43 54 23 29 983.3 983.3 24.6
29/03:00am 10.4 1.1 5.8 73 2.2 NNW 44 57 24 31 983.7 983.7 24.6
29/02:30am 10.6 2.7 6.0 73 2.2 NNW 37 50 20 27 984.0 984.0 24.6
29/02:08am 10.4 2.2 6.7 78 1.7 NNW 39 61 21 33 984.7 984.7 24.4
29/02:00am 11.3 3.8 6.2 71 2.4 NNW 35 46 19 25 984.6 984.6 24.2
29/01:30am 11.1 4.2 6.3 72 2.3 NW 32 48 17 26 985.2 985.2 24.2
29/01:12am 11.7 5.6 6.6 71 2.4 NW 28 46 15 25 985.5 985.5 24.2
29/01:00am 11.5 5.4 6.4 71 2.4 NW 28 39 15 21 985.8 985.8 24.2
29/12:30am 11.7 5.4 7.2 74 2.2 NW 30 39 16 21 986.0 986.0 24.2
29/12:00am 11.8 4.9 7.1 73 2.3 WNW 33 43 18 23 986.0 986.0 24.2
 
Date/Time
CST
Temp
°C
App
Temp
°C
Dew
Point
°C
Rel
Hum
%
Delta-T
°C
Wind Press
QNH
hPa
Press
MSL
hPa
Rain since
9am
mm
Dir  Spd
km/h
Gust
km/h
Spd
kts
Gust
kts
28/11:44pm 11.4 5.0 7.1 75 2.1 WNW 30 50 16 27 986.1 986.1 24.2
28/11:30pm 10.6 6.1 8.7 88 0.9 WNW 22 30 12 16 986.1 986.1 24.2
28/11:04pm 11.0 4.7 8.8 86 1.1 WNW 32 56 17 30 986.1 986.1 23.6
28/11:00pm 10.9 4.6 8.8 87 1.0 WNW 32 50 17 27 986.0 986.0 23.6
28/10:30pm 11.7 6.7 9.4 86 1.2 NW 26 37 14 20 986.2 986.2 23.4
28/10:00pm 11.6 5.7 9.0 84 1.3 WNW 30 46 16 25 986.0 986.0 23.4
28/09:30pm 11.9 7.0 10.0 88 1.0 NW 26 37 14 20 986.4 986.4 23.4
28/09:00pm 11.9 8.5 10.5 91 0.7 NE 19 24 10 13 986.6 986.6 23.2
28/08:30pm 11.7 9.4 10.4 92 0.7 NE 13 19 7 10 987.1 987.1 23.0
28/08:00pm 11.6 8.5 10.2 91 0.7 E 17 26 9 14 987.3 987.3 21.8
28/07:31pm 11.6 5.4 10.0 90 0.8 ENE 33 52 18 28 987.8 987.8 16.4
28/07:30pm 11.6 5.0 10.0 90 0.8 ENE 35 52 19 28 987.8 987.8 16.4
28/07:00pm 11.6 4.2 10.0 90 0.8 ENE 39 57 21 31 987.9 987.9 13.4
28/06:57pm 11.7 5.1 10.1 90 0.8 ENE 35 57 19 31 987.7 987.7 13.0
28/06:30pm 11.6 5.9 9.9 89 0.9 ENE 30 43 16 23 989.4 989.4 11.2
28/06:29pm 11.6 5.5 9.9 89 0.9 ENE 32 43 17 23 989.4 989.4 11.2
28/06:00pm 11.7 7.1 9.8 88 1.0 NE 24 35 13 19 991.4 991.4 6.4
28/05:54pm 11.8 5.5 9.7 87 1.1 NE 33 46 18 25 991.2 991.2 5.8
28/05:30pm 11.6 4.9 9.5 87 1.1 ENE 35 44 19 24 989.2 989.2 2.6
28/05:00pm 11.7 4.2 9.6 87 1.1 NE 39 48 21 26 990.9 990.9 2.2
28/04:32pm 11.8 3.5 9.5 86 1.2 NE 43 61 23 33 991.0 991.0 1.8
28/04:30pm 11.8 4.0 9.7 87 1.1 NE 41 54 22 29 991.3 991.3 1.8
28/04:00pm 12.2 2.7 9.9 86 1.2 NE 50 61 27 33 991.8 991.8 1.6
28/03:32pm 12.6 4.2 9.6 82 1.5 NNE 44 65 24 35 993.6 993.6 1.2
28/03:30pm 12.6 3.4 9.4 81 1.6 NNE 48 65 26 35 993.7 993.7 1.0
28/03:00pm 15.0 7.3 8.5 65 3.3 N 39 67 21 36 994.7 994.7 0.2
28/02:58pm 15.4 8.8 8.6 64 3.5 NNE 33 54 18 29 994.7 994.7 0.2
28/02:30pm 16.3 9.6 8.0 58 4.2 NNE 33 44 18 24 994.6 994.6 0.0
28/02:00pm 16.6 9.1 7.8 56 4.4 NNE 37 46 20 25 996.1 996.1 0.0
28/01:30pm 16.6 9.1 7.8 56 4.5 NE 37 48 20 26 996.9 996.9 0.0
28/01:00pm 16.7 9.1 7.4 54 4.7 NE 37 48 20 26 997.5 997.5 0.0
28/12:30pm 16.9 8.9 7.5 54 4.7 NE 39 48 21 26 998.4 998.4 0.0
28/12:00pm 16.7 8.8 7.9 56 4.5 NE 39 50 21 27 998.6 998.6 0.0
28/11:30am 16.8 9.7 8.2 57 4.4 NE 35 43 19 23 999.7 999.7 0.0
28/11:00am 17.4 9.3 8.5 56 4.6 NNE 41 54 22 29 1001.3 1001.3 0.0
28/10:30am 16.6 8.2 7.5 55 4.6 NNE 41 52 22 28 1001.8 1001.8 0.0
28/10:00am 15.7 7.0 7.7 59 4.0 NE 43 52 23 28 1002.6 1002.6 0.0
28/09:30am 14.9 7.5 8.2 64 3.4 NE 37 54 20 29 1004.0 1004.0 0.0
28/09:00am 13.8 5.9 7.8 67 3.0 NE 39 50 21 27 1005.4 1005.4 0.0
28/08:30am 12.8 6.0 7.9 72 2.4 NNE 33 43 18 23 1006.4 1006.4 0.0
28/08:00am 11.9 6.5 8.2 78 1.8 NNE 26 33 14 18 1007.1 1007.1 0.0
28/07:30am 10.8 5.8 7.9 82 1.4 NE 24 32 13 17 1007.6 1007.6 0.0
28/07:00am 8.9 5.4 7.2 89 0.8 ENE 15 19 8 10 1008.2 1008.2 0.0
28/06:30am 7.9 4.2 6.4 90 0.7 ENE 15 17 8 9 1008.4 1008.4 0.0
28/06:00am 7.3 3.5 5.9 91 0.6 NE 15 17 8 9 1008.6 1008.6 0.0
28/05:30am 8.0 4.3 6.5 90 0.7 NE 15 19 8 10 1008.8 1008.8 0.0
28/05:00am 8.7 5.2 7.3 91 0.7 NE 15 19 8 10 1008.9 1008.9 0.0
28/04:30am 7.5 4.1 6.1 91 0.6 NE 13 17 7 9 1009.3 1009.3 0.0
28/04:00am 8.4 6.0 6.9 90 0.7 NE 9 11 5 6 1009.3 1009.3 0.0
28/03:30am 9.9 6.6 8.2 89 0.8 NE 15 17 8 9 1009.4 1009.4 0.0
28/03:00am 10.2 7.4 8.5 89 0.8 NNE 13 17 7 9 1009.8 1009.8 0.0
28/02:30am 10.4 8.0 8.7 89 0.8 N 11 13 6 7 1010.1 1010.1 0.0
28/02:00am 10.1 7.2 8.2 88 0.9 N 13 15 7 8 1010.4 1010.4 0.0
28/01:30am 10.7 7.9 8.6 87 1.0 NNW 13 15 7 8 1010.7 1010.7 0.0
28/01:00am 10.7 7.9 8.6 87 1.0 NNW 13 15 7 8 1011.1 1011.1 0.0
28/12:30am 10.9 8.2 8.8 87 1.0 NNW 13 15 7 8 1011.5 1011.5 0.0
28/12:00am 11.9 9.8 9.6 86 1.2 NW 11 15 6 8 1011.6 1011.6 0.0
 
Date/Time
CST
Temp
°C
App
Temp
°C
Dew
Point
°C
Rel
Hum
%
Delta-T
°C
Wind Press
QNH
hPa
Press
MSL
hPa
Rain since
9am
mm
Dir  Spd
km/h
Gust
km/h
Spd
kts
Gust
kts
27/11:30pm 12.2 8.9 9.6 84 1.3 NNW 17 20 9 11 1011.9 1011.9 0.0
27/11:00pm 12.3 8.6 9.5 83 1.4 NNW 19 26 10 14 1012.1 1012.1 0.0
27/10:30pm 12.0 8.3 9.4 84 1.3 NNW 19 24 10 13 1012.1 1012.1 0.0
27/10:00pm 12.7 9.4 9.7 82 1.5 NW 17 24 9 13 1012.4 1012.4 0.0
27/09:30pm 12.6 9.4 9.8 83 1.4 NW 17 22 9 12 1012.5 1012.5 0.0
27/09:00pm 13.1 9.4 10.3 83 1.5 NNW 20 28 11 15 1012.5 1012.5 0.0
27/08:30pm 13.1 9.4 10.1 82 1.5 NNW 20 28 11 15 1012.5 1012.5 0.0
27/08:00pm 13.1 9.3 9.7 80 1.7 NNW 20 26 11 14 1012.6 1012.6 0.0
27/07:30pm 13.0 9.2 9.8 81 1.6 NNW 20 26 11 14 1012.5 1012.5 0.0
27/07:00pm 12.9 9.6 9.7 81 1.6 NNW 17 22 9 12 1012.6 1012.6 0.0
27/06:30pm 12.5 9.1 9.1 80 1.7 NNW 17 20 9 11 1012.5 1012.5 0.0
27/06:00pm 12.6 9.3 9.4 81 1.6 N 17 22 9 12 1012.6 1012.6 0.0
27/05:30pm 12.9 9.0 9.4 79 1.8 NNW 20 26 11 14 1012.6 1012.6 0.0
27/05:00pm 13.2 8.5 9.1 76 2.1 NNW 24 28 13 15 1012.4 1012.4 0.0
27/04:30pm 13.8 9.4 9.0 73 2.4 NW 22 32 12 17 1012.7 1012.7 0.0
27/04:00pm 14.4 9.5 8.4 67 3.0 NW 24 32 13 17 1012.8 1012.8 0.0
27/03:30pm 14.7 9.8 8.4 66 3.2 NW 24 33 13 18 1012.7 1012.7 0.0
27/03:00pm 14.7 9.9 8.9 68 3.0 NW 24 33 13 18 1012.8 1012.8 0.0
27/02:30pm 14.3 9.1 8.7 69 2.8 NW 26 35 14 19 1012.9 1012.9 0.0
27/02:00pm 15.0 10.2 8.9 67 3.1 NW 24 35 13 19 1013.1 1013.1 0.0
27/01:30pm 14.8 9.4 9.6 71 2.7 NW 28 37 15 20 1013.1 1013.1 0.0
27/01:00pm 14.6 9.2 9.4 71 2.7 NW 28 35 15 19 1013.3 1013.3 0.0
27/12:30pm 14.3 9.7 9.5 73 2.5 NW 24 35 13 19 1013.6 1013.6 0.0
27/12:00pm 13.2 9.4 8.9 75 2.2 NNW 19 30 10 16 1013.7 1013.7 0.0
27/11:30am 15.0 11.3 9.4 69 2.9 NW 19 28 10 15 1013.8 1013.8 0.0
27/11:00am 14.3 10.3 9.1 71 2.6 NW 20 28 11 15 1013.8 1013.8 0.0
27/10:30am 13.8 9.7 8.0 68 2.9 NW 19 24 10 13 1014.1 1014.1 0.0
27/10:00am 14.0 8.0 8.8 71 2.6 WNW 30 43 16 23 1014.3 1014.3 0.0
27/09:30am 13.2 8.0 7.2 67 2.9 WNW 24 30 13 16 1014.4 1014.4 0.0
27/09:00am 12.1 8.6 7.4 73 2.3 W 15 24 8 13 1014.4 1014.4 3.0
27/08:30am 12.1 7.2 7.0 71 2.4 WSW 22 28 12 15 1014.0 1014.0 3.0
27/08:00am 12.6 8.2 6.4 66 2.9 W 19 24 10 13 1013.7 1013.7 3.0
27/07:30am 11.7 8.5 7.0 73 2.2 WNW 13 17 7 9 1013.4 1013.4 3.0
27/07:00am 11.0 5.9 6.2 72 2.2 WNW 22 30 12 16 1013.3 1013.3 3.0
27/06:30am 10.5 6.1 4.9 68 2.5 W 17 24 9 13 1012.9 1012.9 3.0
27/06:00am 10.3 5.4 4.0 65 2.8 W 19 22 10 12 1012.6 1012.6 3.0
27/05:30am 10.4 5.2 3.7 63 2.9 WSW 20 28 11 15 1012.4 1012.4 3.0
27/05:00am 10.0 5.0 3.7 65 2.8 WSW 19 26 10 14 1012.2 1012.2 3.0
27/04:30am 10.4 4.0 3.0 60 3.2 WSW 26 33 14 18 1011.9 1011.9 3.0
27/04:00am 10.1 3.6 2.5 59 3.2 W 26 32 14 17 1011.7 1011.7 3.0
27/03:30am 10.5 4.7 4.4 66 2.7 WSW 24 33 13 18 1011.7 1011.7 3.0
27/03:00am 10.4 3.7 3.9 64 2.9 WSW 28 39 15 21 1011.8 1011.8 3.0
27/02:30am 10.4 3.2 3.0 60 3.2 WSW 30 37 16 20 1011.8 1011.8 3.0
27/02:00am 10.6 3.2 3.9 63 3.0 WSW 32 41 17 22 1012.0 1012.0 3.0
27/01:30am 10.5 3.6 4.6 67 2.7 WSW 30 39 16 21 1012.1 1012.1 3.0
27/01:00am 10.6 3.1 4.3 65 2.8 WSW 33 43 18 23 1012.1 1012.1 3.0
27/12:30am 11.0 3.9 5.7 70 2.5 WSW 32 44 17 24 1011.9 1011.9 3.0
27/12:00am 11.3 4.3 6.2 71 2.4 WSW 32 44 17 24 1011.6 1011.6 3.0
 
Date/Time
CST
Temp
°C
App
Temp
°C
Dew
Point
°C
Rel
Hum
%
Delta-T
°C
Wind Press
QNH
hPa
Press
MSL
hPa
Rain since
9am
mm
Dir  Spd
km/h
Gust
km/h
Spd
kts
Gust
kts
26/11:30pm 11.0 4.1 6.4 73 2.2 WSW 32 41 17 22 1011.5 1011.5 3.0
26/11:00pm 10.8 5.6 7.1 78 1.8 W 24 35 13 19 1011.8 1011.8 3.0
26/10:30pm 10.9 5.2 6.5 74 2.1 WSW 26 35 14 19 1011.7 1011.7 3.0
26/10:00pm 11.0 5.3 6.7 75 2.0 W 26 35 14 19 1011.7 1011.7 3.0
26/09:30pm 10.6 4.4 6.0 73 2.1 W 28 39 15 21 1011.6 1011.6 3.0
26/09:00pm 10.9 5.0 5.9 71 2.3 W 26 35 14 19 1011.4 1011.4 3.0
26/08:30pm 11.0 4.6 5.3 68 2.6 WSW 28 35 15 19 1011.4 1011.4 3.0
26/08:00pm 10.7 3.9 5.0 68 2.6 W 30 39 16 21 1010.9 1010.9 3.0
26/07:30pm 10.3 3.1 4.9 69 2.4 WSW 32 43 17 23 1010.7 1010.7 3.0
26/07:00pm 9.4 3.5 5.6 77 1.7 SW 26 37 14 20 1010.3 1010.3 3.0
26/06:30pm 10.4 4.0 5.2 70 2.4 W 28 37 15 20 1010.0 1010.0 3.0
26/06:00pm 10.4 2.9 4.5 67 2.6 W 33 46 18 25 1009.8 1009.8 3.0
26/05:30pm 10.7 5.3 6.3 74 2.1 W 24 32 13 17 1009.4 1009.4 3.0
26/05:02pm 10.9 4.0 6.6 75 2.0 W 32 52 17 28 1009.1 1009.1 3.0
26/05:00pm 10.9 3.9 6.8 76 1.9 W 33 52 18 28 1009.1 1009.1 3.0
26/04:50pm 11.0 4.5 6.4 73 2.2 WNW 30 50 16 27 1008.9 1008.9 3.0
26/04:30pm 11.6 5.8 6.1 69 2.6 WNW 26 37 14 20 1008.8 1008.8 3.0
26/04:00pm 10.6 6.3 6.9 78 1.8 NW 19 30 10 16 1008.7 1008.7 3.0
26/03:30pm 10.0 5.0 6.5 79 1.6 W 22 32 12 17 1008.9 1008.9 2.6
26/03:01pm 10.9 4.1 5.0 67 2.7 WNW 30 52 16 28 1009.1 1009.1 1.6
26/03:00pm 11.1 4.7 5.4 68 2.6 WNW 28 46 15 25 1009.1 1009.1 1.6
26/02:30pm 10.8 4.2 6.0 72 2.2 NNW 30 41 16 22 1009.0 1009.0 1.6
26/02:18pm 11.0 3.3 5.3 68 2.6 NW 35 46 19 25 1009.0 1009.0 1.6
26/02:00pm 12.9 5.3 5.6 61 3.4 WNW 35 46 19 25 1008.9 1008.9 1.6
26/01:30pm 13.2 7.9 8.5 73 2.4 NW 26 35 14 19 1009.0 1009.0 1.6
26/01:00pm 13.5 7.4 8.1 70 2.7 NW 30 43 16 23 1009.2 1009.2 1.6
26/12:30pm 11.8 6.1 6.9 72 2.3 NW 26 41 14 22 1009.4 1009.4 1.6
26/12:00pm 10.3 3.7 6.1 75 2.0 NW 30 44 16 24 1010.0 1010.0 1.6
26/11:30am 11.0 5.4 7.1 77 1.9 WNW 26 37 14 20 1009.6 1009.6 1.2
26/11:00am 10.4 4.3 8.2 86 1.1 WNW 30 43 16 23 1010.1 1010.1 1.2
26/10:44am 10.1 2.2 7.9 86 1.1 WNW 39 59 21 32 1010.5 1010.5 0.8
26/10:34am 11.2 4.4 7.5 78 1.8 NNW 33 54 18 29 1010.4 1010.4 0.2
26/10:32am 12.3 6.0 8.8 79 1.7 NNW 32 54 17 29 1010.3 1010.3 0.2
26/10:30am 12.4 6.5 9.1 80 1.7 NNW 30 37 16 20 1010.2 1010.2 0.2
26/10:00am 12.9 7.6 8.6 75 2.1 NNW 26 35 14 19 1009.9 1009.9 0.0
26/09:30am 13.4 7.3 8.3 71 2.5 N 30 37 16 20 1010.2 1010.2 0.0
26/09:00am 12.6 6.6 8.7 77 2.0 N 30 35 16 19 1010.2 1010.2 0.8
26/08:30am 13.3 8.3 9.5 78 1.9 N 26 33 14 18 1010.2 1010.2 0.8
26/08:00am 12.9 7.9 9.5 80 1.7 N 26 32 14 17 1010.5 1010.5 0.8
26/07:30am 11.7 6.4 8.4 80 1.6 N 26 32 14 17 1010.6 1010.6 0.8
26/07:00am 11.8 7.0 8.8 82 1.5 N 24 30 13 16 1010.9 1010.9 0.8
26/06:30am 11.7 7.1 8.2 79 1.7 N 22 30 12 16 1011.0 1011.0 0.8
26/06:00am 11.2 6.1 7.5 78 1.8 N 24 33 13 18 1010.9 1010.9 0.8
26/05:30am 10.4 6.6 7.6 83 1.3 N 17 20 9 11 1010.5 1010.5 0.8
26/05:00am 10.3 6.5 7.5 83 1.3 NNW 17 22 9 12 1010.5 1010.5 0.8
26/04:30am 11.0 6.4 8.1 82 1.4 N 22 30 12 16 1010.5 1010.5 0.8

Other Formats:

Comma delimited format used in spreadsheet applications
http://www.bom.gov.au/fwo/IDS60801/IDS60801.94813.axf

JavaScript Object Notation format (JSON) in row-major order
http://www.bom.gov.au/fwo/IDS60801/IDS60801.94813.json